Time;durP1;ratioP1;P1;durP2;ratioP2;P2;SDS_P1;SDS_P2;PMS_P1;PMS_P2;Temp;Humidity;BMP_temperature;BMP_pressure;BME280_temperature;BME280_humidity;BME280_pressure;Samples;Min_cycle;Max_cycle;Signal;HPM_P1;HPM_P2
2022/08/16 00:01:49;;;;;;;27.15;23.02;;;;;;;18.55;97.64;100060.13;7394632;19;20011;-69
2022/08/16 00:04:18;;;;;;;28.83;22.38;;;;;;;18.54;97.68;100069.09;7393922;19;20031;-69
2022/08/16 00:06:47;;;;;;;25.58;21.95;;;;;;;18.52;97.32;100071.81;7394477;19;20437;-70
2022/08/16 00:09:15;;;;;;;24.92;21.70;;;;;;;18.51;97.51;100069.25;7394881;19;20022;-69
2022/08/16 00:11:48;;;;;;;23.88;20.85;;;;;;;18.50;97.64;100080.84;7394835;19;20015;-69
2022/08/16 00:14:19;;;;;;;26.95;21.83;;;;;;;18.47;97.18;100086.38;7393871;19;20082;-69
2022/08/16 00:16:49;;;;;;;25.67;21.83;;;;;;;18.44;97.23;100073.25;7394409;19;20018;-69
2022/08/16 00:19:21;;;;;;;29.30;22.95;;;;;;;18.42;97.60;100072.53;7392446;19;20423;-69
2022/08/16 00:21:49;;;;;;;25.67;22.17;;;;;;;18.40;97.55;100080.59;7395013;19;20019;-69
2022/08/16 00:24:18;;;;;;;25.05;22.15;;;;;;;18.37;97.15;100075.47;7393312;19;20031;-69
2022/08/16 00:26:49;;;;;;;27.55;23.45;;;;;;;18.36;97.78;100066.66;7394056;19;20035;-69
2022/08/16 00:29:19;;;;;;;27.85;23.83;;;;;;;18.34;97.35;100062.41;7394072;19;20018;-69
2022/08/16 00:31:49;;;;;;;29.23;24.48;;;;;;;18.33;97.60;100058.88;7398494;19;20091;-70
2022/08/16 00:34:19;;;;;;;29.65;23.30;;;;;;;18.33;97.87;100061.53;7400357;19;20082;-69
2022/08/16 00:36:48;;;;;;;29.52;24.50;;;;;;;18.32;97.70;100067.81;7401666;19;20018;-70
2022/08/16 00:39:17;;;;;;;30.88;23.73;;;;;;;18.31;97.63;100081.19;7401660;19;20094;-69
2022/08/16 00:41:50;;;;;;;31.35;25.48;;;;;;;18.28;97.58;100074.28;7401090;19;20015;-69
2022/08/16 00:44:22;;;;;;;26.38;23.30;;;;;;;18.26;97.48;100072.66;7399425;19;20021;-69
2022/08/16 00:46:56;;;;;;;28.58;24.98;;;;;;;18.23;97.72;100077.22;7401048;19;20043;-69
2022/08/16 00:49:26;;;;;;;31.08;24.77;;;;;;;18.21;97.65;100072.94;7401748;19;20014;-70
2022/08/16 00:51:55;;;;;;;31.05;25.80;;;;;;;18.19;98.05;100077.53;7401220;19;20035;-69
2022/08/16 00:54:26;;;;;;;33.88;27.30;;;;;;;18.16;97.91;100078.59;7398470;19;20019;-69
2022/08/16 00:56:59;;;;;;;29.35;25.00;;;;;;;18.15;97.90;100089.31;7400669;19;20489;-69
2022/08/16 00:59:31;;;;;;;33.50;25.92;;;;;;;18.10;97.73;100084.28;7400642;19;20025;-70
2022/08/16 01:01:59;;;;;;;31.02;25.73;;;;;;;18.07;97.95;100074.72;7401310;19;20023;-69
2022/08/16 01:04:29;;;;;;;33.38;27.20;;;;;;;18.04;98.11;100069.59;7398977;19;20026;-69
2022/08/16 01:06:58;;;;;;;35.42;26.73;;;;;;;18.02;98.02;100065.31;7400677;19;20014;-69
2022/08/16 01:09:26;;;;;;;33.42;27.45;;;;;;;18.00;98.35;100068.09;7400248;19;20014;-69
2022/08/16 01:11:58;;;;;;;32.25;27.90;;;;;;;17.97;98.38;100078.91;7400476;19;20073;-69
2022/08/16 01:14:30;;;;;;;34.17;28.00;;;;;;;17.94;98.11;100076.44;7399264;19;20406;-70
2022/08/16 01:17:00;;;;;;;38.40;28.23;;;;;;;17.93;98.22;100072.03;7400574;19;20022;-69
2022/08/16 01:19:35;;;;;;;35.95;28.55;;;;;;;17.90;98.24;100074.91;7399910;19;20010;-69
2022/08/16 01:22:10;;;;;;;35.50;27.80;;;;;;;17.88;98.38;100079.44;7399907;19;20498;-69
2022/08/16 01:24:45;;;;;;;35.42;28.30;;;;;;;17.85;98.56;100074.34;7398680;19;20022;-69
2022/08/16 01:27:16;;;;;;;36.67;27.58;;;;;;;17.83;98.32;100077.09;7400517;19;20031;-70
2022/08/16 01:29:56;;;;;;;34.40;28.20;;;;;;;17.81;98.49;100073.66;7400318;19;20014;-69
2022/08/16 01:32:25;;;;;;;34.78;28.95;;;;;;;17.79;98.54;100075.56;7396997;19;20078;-69
2022/08/16 01:34:54;;;;;;;34.70;28.50;;;;;;;17.77;98.30;100081.91;7397712;19;20394;-68
2022/08/16 01:37:22;;;;;;;35.92;28.17;;;;;;;17.75;98.53;100084.66;7399292;19;20104;-69
2022/08/16 01:40:00;;;;;;;34.60;27.95;;;;;;;17.72;98.54;100084.88;7396945;19;20032;-69
2022/08/16 01:42:28;;;;;;;37.97;30.25;;;;;;;17.71;98.92;100085.81;7395959;19;20018;-69
2022/08/16 01:44:57;;;;;;;36.15;27.90;;;;;;;17.69;98.77;100085.91;7397086;19;20018;-70
2022/08/16 01:47:26;;;;;;;38.63;28.77;;;;;;;17.68;98.73;100085.97;7398950;19;20485;-69
2022/08/16 01:49:54;;;;;;;35.33;29.00;;;;;;;17.66;98.99;100090.56;7399331;19;20040;-69
2022/08/16 01:52:23;;;;;;;34.67;28.50;;;;;;;17.63;98.66;100098.69;7398713;19;20402;-68
2022/08/16 01:54:51;;;;;;;39.60;30.02;;;;;;;17.60;98.47;100091.75;7395799;19;20411;-69
2022/08/16 01:57:22;;;;;;;35.13;27.92;;;;;;;17.58;98.85;100099.81;7399456;19;20022;-69
2022/08/16 01:59:51;;;;;;;35.25;29.13;;;;;;;17.56;98.74;100095.56;7398707;19;20014;-70
2022/08/16 02:02:19;;;;;;;36.92;29.20;;;;;;;17.54;98.87;100094.78;7396654;19;20014;-69
2022/08/16 02:04:48;;;;;;;38.55;29.75;;;;;;;17.52;98.86;100094.06;7397104;19;20039;-70
2022/08/16 02:07:17;;;;;;;36.45;28.77;;;;;;;17.52;98.97;100099.34;7396692;19;20074;-70
2022/08/16 02:09:46;;;;;;;39.25;29.90;;;;;;;17.50;99.22;100096.81;7396408;19;20015;-69
2022/08/16 02:12:16;;;;;;;38.17;30.15;;;;;;;17.51;99.23;100102.94;7398221;19;20355;-69
2022/08/16 02:14:47;;;;;;;40.40;30.33;;;;;;;17.49;99.36;100096.88;7396765;19;20036;-69
2022/08/16 02:17:16;;;;;;;38.47;30.02;;;;;;;17.48;99.37;100092.50;7398629;19;20019;-69
2022/08/16 02:19:47;;;;;;;41.50;31.95;;;;;;;17.47;99.28;100094.31;7398226;19;20014;-69
2022/08/16 02:22:21;;;;;;;37.42;30.40;;;;;;;17.46;99.57;100089.13;7396403;19;20038;-69
2022/08/16 02:24:51;;;;;;;40.40;32.22;;;;;;;17.46;99.75;100100.56;7395970;19;20032;-69
2022/08/16 02:27:19;;;;;;;39.60;31.50;;;;;;;17.43;99.89;100091.00;7397556;19;20018;-69
2022/08/16 02:29:50;;;;;;;38.75;30.63;;;;;;;17.42;99.72;100089.28;7398026;19;20035;-69
2022/08/16 02:32:19;;;;;;;40.13;30.70;;;;;;;17.41;100.00;100077.00;7395434;19;20541;-68
2022/08/16 02:34:48;;;;;;;43.30;31.13;;;;;;;17.41;99.86;100082.31;7395058;19;20478;-70
2022/08/16 02:37:16;;;;;;;40.63;31.45;;;;;;;17.41;99.80;100084.97;7395567;19;20019;-70
2022/08/16 02:39:45;;;;;;;42.17;31.48;;;;;;;17.39;100.00;100086.00;7397429;19;20031;-70
2022/08/16 02:42:14;;;;;;;41.50;30.40;;;;;;;17.40;99.91;100083.25;7397141;19;20434;-70
2022/08/16 02:44:43;;;;;;;42.40;30.45;;;;;;;17.40;100.00;100083.25;7394971;19;20022;-69
2022/08/16 02:47:14;;;;;;;39.67;31.58;;;;;;;17.39;100.00;100083.34;7397359;19;20018;-69
2022/08/16 02:49:42;;;;;;;42.78;30.45;;;;;;;17.39;100.00;100083.34;7397012;19;20018;-69
2022/08/16 02:52:11;;;;;;;43.15;31.80;;;;;;;17.39;100.00;100091.31;7396806;19;20018;-69
2022/08/16 02:54:40;;;;;;;41.40;30.80;;;;;;;17.40;100.00;100091.19;7392488;19;20095;-69
2022/08/16 02:57:08;;;;;;;40.05;30.80;;;;;;;17.39;100.00;100094.78;7397257;19;20018;-69
2022/08/16 02:59:38;;;;;;;42.47;31.33;;;;;;;17.41;100.00;100095.56;7396508;19;20428;-69
2022/08/16 03:02:06;;;;;;;39.42;30.25;;;;;;;17.41;100.00;100090.25;7396710;19;20019;-69
2022/08/16 03:04:38;;;;;;;37.78;31.17;;;;;;;17.41;100.00;100094.69;7395335;19;20035;-70
2022/08/16 03:07:07;;;;;;;42.65;31.65;;;;;;;17.42;100.00;100097.25;7396139;19;20458;-69
2022/08/16 03:09:37;;;;;;;41.30;31.23;;;;;;;17.46;100.00;100105.03;7396581;19;20023;-70
2022/08/16 03:12:07;;;;;;;38.95;30.45;;;;;;;17.46;100.00;100099.72;7397275;19;20022;-70
2022/08/16 03:14:36;;;;;;;35.80;30.30;;;;;;;17.47;100.00;100099.63;7395305;19;20035;-69
2022/08/16 03:17:05;;;;;;;41.05;30.58;;;;;;;17.48;100.00;100105.78;7396499;19;20018;-70
2022/08/16 03:19:37;;;;;;;40.65;30.40;;;;;;;17.48;100.00;100108.41;7394275;19;20485;-70
2022/08/16 03:22:06;;;;;;;38.85;31.20;;;;;;;17.48;100.00;100116.38;7394989;19;20091;-69
2022/08/16 03:24:34;;;;;;;38.38;30.80;;;;;;;17.48;100.00;100109.28;7394858;19;20022;-69
2022/08/16 03:27:04;;;;;;;40.10;31.33;;;;;;;17.48;100.00;100113.72;7394376;19;20030;-69
2022/08/16 03:29:35;;;;;;;40.03;31.52;;;;;;;17.48;100.00;100108.41;7395822;19;20031;-70
2022/08/16 03:32:04;;;;;;;38.10;30.85;;;;;;;17.48;100.00;100108.41;7395680;19;20330;-70
2022/08/16 03:34:36;;;;;;;40.83;31.00;;;;;;;17.48;100.00;100113.72;7393673;19;20096;-69
2022/08/16 03:37:05;;;;;;;42.67;32.42;;;;;;;17.48;100.00;100108.41;7396543;19;20023;-73
2022/08/16 03:39:33;;;;;;;41.40;32.17;;;;;;;17.48;100.00;100121.69;7395133;19;20014;-70
2022/08/16 03:42:02;;;;;;;44.65;32.78;;;;;;;17.47;100.00;100115.53;7395356;19;20027;-69
2022/08/16 03:44:31;;;;;;;43.85;33.05;;;;;;;17.47;100.00;100117.34;7393889;19;20037;-69
2022/08/16 03:47:01;;;;;;;43.47;31.35;;;;;;;17.46;100.00;100116.47;7395313;19;20018;-69
2022/08/16 03:49:30;;;;;;;41.60;31.05;;;;;;;17.46;100.00;100113.00;7395134;19;20029;-70
2022/08/16 03:52:01;;;;;;;40.88;30.80;;;;;;;17.44;100.00;100118.38;7393065;19;20031;-69
2022/08/16 03:54:29;;;;;;;37.75;31.70;;;;;;;17.44;100.00;100118.38;7393655;19;20035;-70
2022/08/16 03:56:58;;;;;;;39.03;31.40;;;;;;;17.43;100.00;100116.69;7393220;19;20014;-70
2022/08/16 03:59:26;;;;;;;38.17;31.15;;;;;;;17.43;100.00;100116.69;7394991;19;20017;-70
2022/08/16 04:01:55;;;;;;;37.00;30.63;;;;;;;17.42;100.00;100131.72;7394560;19;20031;-70
2022/08/16 04:04:23;;;;;;;39.28;30.58;;;;;;;17.42;100.00;100120.28;7393338;19;20026;-70
2022/08/16 04:06:52;;;;;;;41.75;31.27;;;;;;;17.42;100.00;100129.06;7403037;19;20372;-69
2022/08/16 04:09:23;;;;;;;40.80;29.77;;;;;;;17.41;100.00;100123.84;7406077;19;20011;-70
2022/08/16 04:11:53;;;;;;;37.78;30.83;;;;;;;17.41;100.00;100132.69;7408733;19;20015;-70
2022/08/16 04:14:21;;;;;;;35.75;29.88;;;;;;;17.42;100.00;100128.22;7407267;19;20035;-70
2022/08/16 04:16:50;;;;;;;37.85;30.35;;;;;;;17.42;100.00;100139.66;7406320;19;20031;-70
2022/08/16 04:19:18;;;;;;;37.88;30.67;;;;;;;17.44;99.83;100147.56;7408237;19;20028;-70
2022/08/16 04:21:47;;;;;;;36.83;29.63;;;;;;;17.43;100.00;100152.00;7405799;19;20137;-70
2022/08/16 04:24:15;;;;;;;37.72;29.95;;;;;;;17.44;99.82;100152.84;7407160;19;20038;-70
2022/08/16 04:26:47;;;;;;;41.25;31.67;;;;;;;17.45;100.00;100153.69;7407820;19;20022;-70
2022/08/16 04:29:16;;;;;;;43.65;32.08;;;;;;;17.47;99.83;100155.31;7406337;19;20018;-70
2022/08/16 04:31:44;;;;;;;38.28;30.75;;;;;;;17.48;100.00;100154.38;7407817;19;20093;-70
2022/08/16 04:34:13;;;;;;;41.15;31.33;;;;;;;17.50;100.00;100151.63;7405686;19;20039;-70
2022/08/16 04:36:42;;;;;;;37.63;30.75;;;;;;;17.53;99.79;100154.09;7405638;19;20549;-70
2022/08/16 04:39:10;;;;;;;37.38;30.05;;;;;;;17.54;99.67;100150.47;7407781;19;20014;-70
2022/08/16 04:41:39;;;;;;;39.58;31.77;;;;;;;17.56;99.73;100153.91;7407581;19;20015;-71
2022/08/16 04:44:10;;;;;;;40.40;31.08;;;;;;;17.57;99.77;100155.63;7406295;19;20035;-70
2022/08/16 04:46:39;;;;;;;35.05;29.58;;;;;;;17.59;99.83;100167.84;7408518;19;20501;-70
2022/08/16 04:49:08;;;;;;;34.53;29.63;;;;;;;17.57;99.83;100166.22;7407745;19;20025;-71
2022/08/16 04:51:37;;;;;;;34.17;29.42;;;;;;;17.62;99.87;100173.91;7405592;19;20019;-69
2022/08/16 04:54:05;;;;;;;34.15;29.33;;;;;;;17.63;99.73;100175.59;7406475;19;20074;-71
2022/08/16 04:56:34;;;;;;;36.83;30.35;;;;;;;17.65;99.65;100174.56;7405364;19;20014;-70
2022/08/16 04:59:03;;;;;;;37.90;30.25;;;;;;;17.68;99.82;100181.47;7407550;19;20014;-71
2022/08/16 05:01:34;;;;;;;38.78;29.67;;;;;;;17.70;99.70;100187.56;7406774;19;20015;-70
2022/08/16 05:04:03;;;;;;;35.95;28.65;;;;;;;17.73;99.49;100187.34;7405780;19;20032;-70
2022/08/16 05:06:32;;;;;;;35.20;29.15;;;;;;;17.75;99.47;100190.78;7407007;19;20026;-71
2022/08/16 05:09:01;;;;;;;34.25;28.60;;;;;;;17.75;99.12;100181.03;7406313;19;20382;-70
2022/08/16 05:11:29;;;;;;;30.73;26.88;;;;;;;17.78;99.28;100179.13;7404203;19;20014;-70
2022/08/16 05:14:00;;;;;;;34.85;27.75;;;;;;;17.79;99.33;100183.50;7405915;19;20019;-71
2022/08/16 05:16:32;;;;;;;31.30;27.70;;;;;;;17.82;99.43;100196.56;7404403;19;20006;-70
2022/08/16 05:19:03;;;;;;;32.55;28.20;;;;;;;17.82;99.05;100188.59;7395836;19;20074;-70
2022/08/16 05:21:33;;;;;;;35.72;28.58;;;;;;;17.84;98.59;100192.03;7399318;19;20074;-69
2022/08/16 05:24:01;;;;;;;53.92;39.88;;;;;;;17.86;99.05;100195.44;7397618;19;20022;-69
2022/08/16 05:26:32;;;;;;;136.98;99.32;;;;;;;17.87;99.06;100186.53;7399197;19;20015;-70
2022/08/16 05:29:02;;;;;;;40.40;33.33;;;;;;;17.90;98.87;100189.00;7396716;19;20359;-69
2022/08/16 05:31:31;;;;;;;34.03;29.70;;;;;;;17.92;98.63;100187.13;7396555;19;20028;-70
2022/08/16 05:34:04;;;;;;;34.72;28.63;;;;;;;17.94;99.08;100181.75;7398655;19;20019;-70
2022/08/16 05:36:33;;;;;;;44.67;30.60;;;;;;;17.97;98.77;100181.53;7397032;19;20015;-70
2022/08/16 05:39:02;;;;;;;36.67;29.25;;;;;;;18.00;98.74;100186.66;7398971;19;20039;-69
2022/08/16 05:41:30;;;;;;;37.33;30.25;;;;;;;18.02;98.67;100180.31;7398532;19;20026;-70
2022/08/16 05:44:00;;;;;;;35.10;29.77;;;;;;;18.07;98.91;100185.31;7397225;19;20047;-70
2022/08/16 05:46:28;;;;;;;36.58;30.30;;;;;;;18.12;98.79;100183.25;7398719;19;20097;-70
2022/08/16 05:48:57;;;;;;;45.05;31.08;;;;;;;18.15;98.42;100193.69;7399202;19;20106;-70
2022/08/16 05:51:28;;;;;;;34.92;30.83;;;;;;;18.19;98.48;100194.34;7398793;19;20038;-69
2022/08/16 05:53:56;;;;;;;39.55;30.20;;;;;;;18.21;98.58;100197.72;7397716;19;20023;-70
2022/08/16 05:56:25;;;;;;;38.45;30.60;;;;;;;18.24;98.29;100197.56;7395940;19;20014;-69
2022/08/16 05:58:53;;;;;;;35.25;29.98;;;;;;;18.28;98.52;100198.22;7396363;19;20015;-69
2022/08/16 06:01:22;;;;;;;38.28;29.80;;;;;;;18.32;98.16;100200.56;7397769;19;20027;-70
2022/08/16 06:03:50;;;;;;;39.63;30.35;;;;;;;18.36;98.52;100207.41;7397637;19;20018;-70
2022/08/16 06:06:19;;;;;;;38.33;30.25;;;;;;;18.39;97.99;100209.88;7397839;19;20011;-70
2022/08/16 06:08:50;;;;;;;34.17;28.73;;;;;;;18.44;97.94;100212.25;7397956;19;20022;-71
2022/08/16 06:11:19;;;;;;;37.22;30.17;;;;;;;18.50;98.02;100214.50;7397993;19;20027;-70
2022/08/16 06:13:47;;;;;;;36.17;30.48;;;;;;;18.55;98.12;100223.03;7396443;19;20034;-69
2022/08/16 06:16:22;;;;;;;36.53;30.38;;;;;;;18.59;97.92;100212.19;7396286;19;20392;-71
2022/08/16 06:18:51;;;;;;;37.08;30.08;;;;;;;18.63;97.70;100217.22;7395133;19;20015;-71
2022/08/16 06:21:19;;;;;;;38.03;30.60;;;;;;;18.67;97.51;100221.38;7397273;19;20506;-70
2022/08/16 06:23:51;;;;;;;38.55;31.92;;;;;;;18.72;97.73;100221.94;7395023;19;20019;-70
2022/08/16 06:26:20;;;;;;;35.90;30.45;;;;;;;18.78;97.26;100222.50;7397328;19;20014;-70
2022/08/16 06:28:48;;;;;;;41.40;31.83;;;;;;;18.83;97.26;100231.91;7397029;19;20032;-70
2022/08/16 06:31:18;;;;;;;38.47;31.20;;;;;;;18.89;97.58;100233.28;7396964;19;20074;-69
2022/08/16 06:33:47;;;;;;;36.08;28.73;;;;;;;18.92;96.60;100235.81;7396383;19;20019;-68
2022/08/16 06:36:16;;;;;;;36.63;29.13;;;;;;;18.97;97.03;100233.69;7396307;19;20047;-69
2022/08/16 06:38:45;;;;;;;32.90;27.70;;;;;;;19.00;96.50;100238.78;7396460;19;20022;-69
2022/08/16 06:41:16;;;;;;;34.55;28.58;;;;;;;19.03;96.04;100241.28;7396987;19;20010;-69
2022/08/16 06:43:46;;;;;;;44.70;30.85;;;;;;;19.09;96.04;100247.13;7396533;19;20035;-69
2022/08/16 06:46:26;;;;;;;33.95;27.38;;;;;;;19.14;95.58;100253.00;7396545;19;20018;-69
2022/08/16 06:48:55;;;;;;;32.38;27.42;;;;;;;19.17;95.56;100251.00;7397311;19;20022;-69
2022/08/16 06:51:23;;;;;;;32.88;26.65;;;;;;;19.22;95.08;100261.31;7396543;19;20043;-69
2022/08/16 06:53:59;;;;;;;32.83;27.45;;;;;;;19.25;94.70;100263.78;7395892;19;20484;-68
2022/08/16 06:56:30;;;;;;;36.90;26.88;;;;;;;19.29;94.47;100261.78;7394706;19;20007;-69
2022/08/16 06:58:59;;;;;;;32.85;27.45;;;;;;;19.35;95.08;100258.72;7394907;19;20362;-69
2022/08/16 07:01:27;;;;;;;31.38;26.40;;;;;;;19.40;94.32;100269.91;7396342;19;20032;-70
2022/08/16 07:03:56;;;;;;;31.42;26.65;;;;;;;19.45;94.08;100264.25;7395469;19;20036;-70
2022/08/16 07:06:25;;;;;;;32.00;26.85;;;;;;;19.49;94.31;100265.78;7395622;19;20014;-70
2022/08/16 07:08:54;;;;;;;31.33;26.67;;;;;;;19.54;93.82;100275.16;7396593;19;20014;-69
2022/08/16 07:11:29;;;;;;;33.78;27.33;;;;;;;19.57;93.57;100271.41;7396267;19;20015;-69
2022/08/16 07:14:00;;;;;;;33.03;26.83;;;;;;;19.63;94.07;100275.50;7395026;19;20010;-70
2022/08/16 07:16:28;;;;;;;32.55;26.67;;;;;;;19.68;93.48;100276.88;7395042;19;20011;-70
2022/08/16 07:18:58;;;;;;;29.65;26.50;;;;;;;19.73;92.76;100278.38;7394557;19;20015;-69
2022/08/16 07:21:27;;;;;;;30.67;27.35;;;;;;;19.79;93.26;100280.63;7395236;19;20015;-69
2022/08/16 07:23:55;;;;;;;28.38;25.00;;;;;;;19.86;93.26;100273.97;7394502;19;20014;-70
2022/08/16 07:26:28;;;;;;;30.88;26.45;;;;;;;19.92;93.10;100273.53;7394946;19;20031;-69
2022/08/16 07:28:56;;;;;;;32.20;26.10;;;;;;;20.00;92.63;100273.00;7394753;19;20489;-70
2022/08/16 07:31:27;;;;;;;30.83;27.58;;;;;;;20.06;92.34;100285.91;7394708;19;20379;-69
2022/08/16 07:33:56;;;;;;;28.08;25.08;;;;;;;20.14;91.60;100283.56;7394337;19;20018;-70
2022/08/16 07:36:25;;;;;;;28.95;24.98;;;;;;;20.21;91.96;100283.13;7394177;19;20023;-69
2022/08/16 07:38:53;;;;;;;30.95;26.80;;;;;;;20.28;91.96;100287.06;7394824;19;20022;-69
2022/08/16 07:41:23;;;;;;;27.85;24.73;;;;;;;20.34;91.81;100287.47;7393673;19;20031;-70
2022/08/16 07:43:51;;;;;;;27.48;23.58;;;;;;;20.41;91.38;100295.06;7393309;19;20022;-71
2022/08/16 07:46:20;;;;;;;29.55;24.05;;;;;;;20.48;90.79;100297.16;7393281;19;20023;-69
2022/08/16 07:48:51;;;;;;;28.65;24.17;;;;;;;20.56;90.96;100293.13;7394340;19;20026;-70
2022/08/16 07:51:19;;;;;;;26.83;23.45;;;;;;;20.64;90.31;100288.09;7392973;19;20015;-69
2022/08/16 07:53:50;;;;;;;26.75;23.92;;;;;;;20.71;90.45;100296.53;7394145;19;20026;-72
2022/08/16 07:56:19;;;;;;;25.33;22.75;;;;;;;20.80;90.00;100296.75;7392515;19;20340;-70
2022/08/16 07:58:48;;;;;;;25.83;22.88;;;;;;;20.88;89.56;100292.66;7394349;19;20011;-71
2022/08/16 08:01:17;;;;;;;25.85;23.02;;;;;;;20.95;88.98;100289.47;7394214;19;20086;-72
2022/08/16 08:03:46;;;;;;;24.88;22.05;;;;;;;21.05;88.81;100289.59;7393760;19;20019;-69
2022/08/16 08:06:17;;;;;;;24.30;21.63;;;;;;;21.11;88.57;100286.50;7394312;19;20019;-69
2022/08/16 08:08:45;;;;;;;23.98;21.58;;;;;;;21.22;87.77;100296.38;7394189;19;20538;-69
2022/08/16 08:11:14;;;;;;;23.92;21.35;;;;;;;21.30;87.54;100299.31;7394183;19;20033;-69
2022/08/16 08:13:42;;;;;;;24.60;22.10;;;;;;;21.39;86.74;100302.28;7393246;19;20022;-69
2022/08/16 08:16:11;;;;;;;23.20;20.77;;;;;;;21.48;86.09;100309.59;7393733;19;20481;-70
2022/08/16 08:18:40;;;;;;;24.60;21.90;;;;;;;21.57;85.60;100319.63;7392179;19;20078;-70
2022/08/16 08:21:09;;;;;;;22.40;19.90;;;;;;;21.66;85.09;100319.91;7393955;19;20011;-69
2022/08/16 08:23:40;;;;;;;21.52;19.20;;;;;;;21.77;84.63;100323.47;7391713;19;20031;-69
2022/08/16 08:26:09;;;;;;;21.92;19.52;;;;;;;21.87;84.06;100328.13;7390976;19;20014;-69
2022/08/16 08:28:37;;;;;;;22.48;19.10;;;;;;;21.96;83.46;100322.94;7393428;19;20107;-68
2022/08/16 08:31:07;;;;;;;21.38;19.13;;;;;;;22.05;82.93;100326.72;7392593;19;20027;-69
2022/08/16 08:33:36;;;;;;;19.88;17.85;;;;;;;22.14;82.42;100317.16;7392155;19;20485;-69
2022/08/16 08:36:10;;;;;;;21.05;18.90;;;;;;;22.23;82.04;100312.88;7392571;19;20045;-69
2022/08/16 08:38:41;;;;;;;;;;;;;;;22.29;81.42;100315.94;7393017;19;20019;-68
2022/08/16 08:41:09;;;;;;;21.73;18.13;;;;;;;22.36;81.37;100310.97;7392851;19;19926;-69
2022/08/16 08:43:38;;;;;;;20.80;16.10;;;;;;;22.43;80.43;100316.69;7390766;19;20022;-69
2022/08/16 08:46:07;;;;;;;18.23;16.25;;;;;;;22.52;80.33;100317.78;7393485;19;20018;-68
2022/08/16 08:48:36;;;;;;;18.80;16.80;;;;;;;22.61;79.04;100322.44;7391514;19;20031;-68
2022/08/16 08:51:06;;;;;;;18.45;16.45;;;;;;;22.70;78.67;100315.50;7393087;19;20413;-68
2022/08/16 08:53:58;;;;;;;18.45;15.68;;;;;;;22.82;77.88;100319.84;7396783;19;20424;-68
2022/08/16 08:56:40;;;;;;;19.23;17.23;;;;;;;22.90;77.70;100316.59;7398958;19;20015;-68
2022/08/16 08:59:09;;;;;;;17.52;15.43;;;;;;;22.97;77.17;100317.75;7400532;19;20014;-69
2022/08/16 09:01:38;;;;;;;15.73;14.10;;;;;;;23.06;76.78;100318.84;7400822;19;20014;-69
2022/08/16 09:04:08;;;;;;;17.70;14.25;;;;;;;23.16;75.25;100317.16;7397696;19;20018;-68
2022/08/16 09:06:37;;;;;;;16.35;14.63;;;;;;;23.23;74.50;100313.00;7400156;19;20364;-69
2022/08/16 09:09:09;;;;;;;14.95;13.45;;;;;;;23.32;73.58;100319.44;7399721;19;20035;-68
2022/08/16 09:11:38;;;;;;;17.40;12.73;;;;;;;23.43;73.03;100319.38;7397587;19;20070;-67
2022/08/16 09:14:07;;;;;;;14.30;12.38;;;;;;;23.53;72.35;100314.13;7399162;19;20024;-69
2022/08/16 09:16:36;;;;;;;14.77;12.63;;;;;;;23.63;71.81;100318.72;7399469;19;20489;-68
2022/08/16 09:19:04;;;;;;;13.75;12.02;;;;;;;23.73;71.77;100319.63;7400285;19;20022;-71
2022/08/16 09:21:33;;;;;;;16.48;13.38;;;;;;;23.85;71.13;100318.59;7399247;19;20388;-74
2022/08/16 09:24:02;;;;;;;12.88;11.48;;;;;;;23.97;70.59;100315.88;7398204;19;20506;-69
2022/08/16 09:26:33;;;;;;;13.93;11.20;;;;;;;24.08;69.24;100316.66;7399601;19;20543;-68
2022/08/16 09:29:01;;;;;;;12.90;9.68;;;;;;;24.20;68.94;100316.59;7396362;19;20340;-68
2022/08/16 09:31:30;;;;;;;17.15;9.82;;;;;;;24.32;66.30;100318.22;7398370;19;20485;-69
2022/08/16 09:34:01;;;;;;;11.23;9.57;;;;;;;24.43;66.33;100313.75;7398029;19;20022;-68
2022/08/16 09:36:30;;;;;;;10.45;9.45;;;;;;;24.53;65.48;100314.66;7395362;19;20485;-69
2022/08/16 09:38:59;;;;;;;9.85;8.63;;;;;;;24.63;64.45;100312.00;7398398;19;20457;-68
2022/08/16 09:41:28;;;;;;;11.70;7.90;;;;;;;24.74;63.41;100314.59;7396174;19;20015;-69
2022/08/16 09:44:02;;;;;;;10.02;8.85;;;;;;;24.82;62.43;100306.75;7398191;19;20023;-68
2022/08/16 09:46:31;;;;;;;9.80;7.88;;;;;;;24.93;62.20;100307.63;7395935;19;20015;-68
2022/08/16 09:49:00;;;;;;;9.10;7.72;;;;;;;25.04;60.54;100310.19;7398295;19;20384;-69
2022/08/16 09:51:28;;;;;;;7.70;6.97;;;;;;;25.15;59.96;100299.31;7398934;19;20022;-70
2022/08/16 09:53:57;;;;;;;9.55;6.55;;;;;;;25.26;59.19;100306.38;7397362;19;20014;-69
2022/08/16 09:56:30;;;;;;;10.07;7.03;;;;;;;25.36;57.52;100309.97;7396863;19;20010;-69
2022/08/16 09:59:03;;;;;;;9.02;7.22;;;;;;;25.50;58.33;100305.16;7397407;19;20082;-69
2022/08/16 10:01:32;;;;;;;8.98;6.55;;;;;;;25.61;58.13;100302.34;7400251;19;20082;-68
2022/08/16 10:04:00;;;;;;;7.40;6.65;;;;;;;25.74;57.57;100304.72;7396028;19;20419;-67
2022/08/16 10:06:30;;;;;;;7.38;6.55;;;;;;;25.84;56.52;100313.66;7398046;19;20031;-68
2022/08/16 10:08:58;;;;;;;8.88;6.53;;;;;;;25.93;55.76;100309.25;7398266;19;20018;-68
2022/08/16 10:14:10;;;;;;;9.00;6.80;;;;;;;26.10;55.22;100309.53;7396831;19;20023;-67
2022/08/16 10:16:39;;;;;;;10.25;6.60;;;;;;;26.16;54.94;100307.09;7396006;19;20032;-68
2022/08/16 10:19:07;;;;;;;6.90;6.25;;;;;;;26.22;54.62;100305.66;7395071;19;20014;-69
2022/08/16 10:21:36;;;;;;;9.45;6.10;;;;;;;26.27;54.25;100307.91;7397057;19;20028;-68
2022/08/16 10:24:06;;;;;;;7.72;6.97;;;;;;;26.29;53.78;100304.09;7394750;19;20019;-68
2022/08/16 10:26:35;;;;;;;8.15;6.40;;;;;;;26.33;54.10;100307.34;7397038;19;20038;-69
2022/08/16 10:29:05;;;;;;;9.10;6.40;;;;;;;26.36;52.89;100304.34;7395331;19;20018;-69
2022/08/16 10:31:36;;;;;;;6.28;5.68;;;;;;;26.38;52.05;100310.44;7397173;19;20376;-69
2022/08/16 10:34:05;;;;;;;7.07;5.63;;;;;;;26.41;52.25;100310.16;7396293;19;20347;-69
2022/08/16 10:36:34;;;;;;;5.80;5.18;;;;;;;26.44;51.45;100307.16;7396948;19;20027;-67
2022/08/16 10:39:03;;;;;;;6.38;5.30;;;;;;;26.49;50.34;100318.31;7394673;19;20014;-68
2022/08/16 10:41:31;;;;;;;9.05;5.15;;;;;;;26.56;50.19;100301.59;7395083;19;20104;-68
2022/08/16 10:44:00;;;;;;;7.38;5.28;;;;;;;26.61;50.34;100304.69;7395326;19;20031;-68
2022/08/16 10:46:29;;;;;;;6.00;4.47;;;;;;;26.64;50.45;100302.53;7397220;19;20033;-68
2022/08/16 10:49:01;;;;;;;6.70;5.55;;;;;;;26.71;50.07;100300.09;7396667;19;20086;-68
2022/08/16 10:51:31;;;;;;;5.40;4.90;;;;;;;26.76;50.16;100300.53;7396397;19;20015;-68
2022/08/16 10:54:01;;;;;;;6.28;5.45;;;;;;;26.83;49.77;100304.31;7396333;19;20033;-68
2022/08/16 10:56:30;;;;;;;8.05;5.38;;;;;;;26.91;49.22;100311.63;7395585;19;20014;-68
2022/08/16 10:58:59;;;;;;;6.90;4.88;;;;;;;26.98;49.47;100311.88;7395076;19;20031;-68
2022/08/16 11:01:28;;;;;;;5.60;4.95;;;;;;;27.03;48.80;100297.97;7394196;19;20036;-68
2022/08/16 11:03:56;;;;;;;5.80;5.13;;;;;;;27.11;48.01;100306.16;7395141;19;20035;-68
2022/08/16 11:06:28;;;;;;;5.22;4.72;;;;;;;27.15;47.95;100302.16;7394143;19;20042;-68
2022/08/16 11:08:57;;;;;;;7.05;5.60;;;;;;;27.21;48.04;100300.66;7396257;19;20018;-69
2022/08/16 11:11:25;;;;;;;6.00;5.05;;;;;;;27.29;48.10;100306.16;7395839;19;20420;-68
2022/08/16 11:13:54;;;;;;;7.75;5.95;;;;;;;27.38;47.75;100307.91;7395228;19;20018;-67
2022/08/16 11:16:23;;;;;;;6.80;4.75;;;;;;;27.47;46.96;100307.03;7393452;19;20022;-68
2022/08/16 11:18:52;;;;;;;5.38;4.70;;;;;;;27.54;46.21;100309.97;7393853;19;20015;-68
2022/08/16 11:21:22;;;;;;;4.63;4.18;;;;;;;27.59;45.47;100304.94;7393979;19;20022;-68
2022/08/16 11:23:54;;;;;;;7.25;4.90;;;;;;;27.65;44.68;100308.84;7393913;19;20045;-68
2022/08/16 11:26:23;;;;;;;7.97;4.63;;;;;;;27.71;44.43;100305.53;7395725;19;20015;-68